Arctic Village, AK

11:54 AKDT le 30 septembre 2014 (GMT -0800)
Arctic Village | Change Station
CLOSE
Current Station
Aéroport
Location: Arctic Village,
Altitude: 2090 ft
Stations météo à proximité

Alt. 2090 ft 68.11 °N, 145.58 °W | Updated 18 minutes ago

Partly Cloudy
Partiellement nuageux
25 ° F
Paraît 25 ° F
N
0
Vent Variable Vent de Nord

Aujourd'hui
Haut(e) -- | Bas -- ° F
--% Risque de précip.
Hier
Haut(e) -- | Bas -- ° F
Precip. -- pouce
7:52 AM 7:09 PM
Lune montante, 39% visible
Pression 29.79 pouce
Visibilité 10.0 Miles terrestres
Nuages Peu 12000 ft
Point de rosée 19 ° F
Humidité 80%
Précipitations 0.00 pouce
Profondeur de la couche neigeuse 2 in , 1 in , 3 in
UV 1 sur 12
Pollen Non disponible.
Qualité de l'air Non disponible.
Flu Activity Non disponible.
METAR PARC 301936Z AUTO 00000KT 10SM FEW120 M04/M07 A2979 RMK AO1

More Conditions Fewer Conditions

Pression 29.79 pouce
Visibilité 10.0 Miles terrestres
Nuages Peu 12000 ft
Point de rosée 19 ° F
Humidité 80%
Précipitations 0.00 pouce
Profondeur de la couche neigeuse 2 in , 1 in , 3 in
UV 1 sur 12
Pollen Non disponible.
Qualité de l'air Non disponible.
Flu Activity Non disponible.
METAR PARC 301936Z AUTO 00000KT 10SM FEW120 M04/M07 A2979 RMK AO1

More Conditions Fewer Conditions

10-Day Weather Forecast

Almanac

Astronomie

Sep. 30, 2014 Lever Coucher
Temps réel 07:52 AKDT 19:09 AKDT
Crépuscule civil 06:56 AKDT 20:05 AKDT
Crépuscule nautique 05:49 AKDT 21:11 AKDT
Crépuscule astronomique 04:33 AKDT 22:27 AKDT
Lune 16:42 AKDT 21:17 AKDT
Durée de lumière visible 13h 08m
Longueur du jour
11h 17m
Tomorrow will be 7m 46s shorter.
Lune montante, 39% of the Moon is Illuminated
Aujourd'hui
Lune montante
Oct 1
Premier quartier
Oct 8
Pleine lune
Oct 15
Dernier quartier
Oct 23
Nouveau

Extrêmes aujourd'hui

State Highs State Lows

Community

WunderPhotos

Upload Photos

1,757,731 Photos téléchargées !

Nearby

Qualité de l'air

Not available.

Épaisseur de neige

Station Depth Altitude
Coldfoot 2 in 1040 ft
Pargon Creek 1 in 300 ft
Mt. Ryan 3 in 2800 ft
Monument Creek 32 in 1850 ft
Fort Yukon 0 in 430 ft

Activité sismique

Ville Distance Mag. Time & Date
No recent earthquake activity has been reported nearby.
Minimum magnitude displayed is 2.5.

Températures des eaux côtières

Lieu Température
Aucun rapport de station

Stations météo à proximité